createdAt,value
2023-03-27T00:00:13.221Z,100758.44
2023-03-27T00:02:41.564Z,100762.19
2023-03-27T00:05:10.215Z,100766.00
2023-03-27T00:07:41.134Z,100762.44
2023-03-27T00:10:09.779Z,100766.41
2023-03-27T00:12:37.706Z,100764.31
2023-03-27T00:15:09.893Z,100775.78
2023-03-27T00:17:38.186Z,100778.72
2023-03-27T00:20:07.099Z,100784.75
2023-03-27T00:22:35.992Z,100786.63
2023-03-27T00:25:04.302Z,100789.34
2023-03-27T00:27:32.687Z,100790.63
2023-03-27T00:30:00.627Z,100803.16
2023-03-27T00:32:29.997Z,100807.75
2023-03-27T00:34:57.894Z,100805.25
2023-03-27T00:37:26.106Z,100817.78
2023-03-27T00:39:54.059Z,100820.50
2023-03-27T00:42:22.850Z,100832.78
2023-03-27T00:44:51.533Z,100829.25
2023-03-27T00:47:20.661Z,100832.19
2023-03-27T00:49:50.420Z,100832.38
2023-03-27T00:52:18.330Z,100841.38
2023-03-27T00:54:46.828Z,100844.09
2023-03-27T00:57:19.103Z,100839.94
2023-03-27T00:59:46.973Z,100850.56
2023-03-27T01:02:14.873Z,100850.56
2023-03-27T01:04:42.783Z,100855.78
2023-03-27T01:07:12.383Z,100851.41
2023-03-27T01:09:40.357Z,100846.78
2023-03-27T01:12:12.013Z,100867.69
2023-03-27T01:14:42.930Z,100857.84
2023-03-27T01:17:19.291Z,100857.84
2023-03-27T01:20:32.554Z,100864.13
2023-03-27T01:23:59.925Z,100817.84
2023-03-27T01:26:59.836Z,100881.44
2023-03-27T01:29:32.647Z,100889.59
2023-03-27T01:32:15.960Z,100897.75
2023-03-27T01:35:03.528Z,100896.09
2023-03-27T01:37:50.333Z,100894.44
2023-03-27T01:40:19.718Z,100901.28
2023-03-27T01:42:48.969Z,100903.59
2023-03-27T01:45:18.872Z,100907.16
2023-03-27T01:47:49.088Z,100913.44
2023-03-27T01:50:20.112Z,100900.50
2023-03-27T01:52:51.009Z,100919.91
2023-03-27T01:55:20.489Z,100926.16
2023-03-27T01:57:50.620Z,100927.00
2023-03-27T02:00:22.032Z,100929.72
2023-03-27T02:02:52.671Z,100935.16
2023-03-27T02:05:23.137Z,100940.38
2023-03-27T02:07:53.693Z,100934.94
2023-03-27T02:10:24.637Z,100939.75
2023-03-27T02:12:55.983Z,100949.56
2023-03-27T02:15:25.609Z,100950.38
2023-03-27T02:17:56.987Z,100951.63
2023-03-27T02:20:25.041Z,100957.91
2023-03-27T02:22:53.656Z,100961.66
2023-03-27T02:25:25.502Z,100949.34
2023-03-27T02:27:57.265Z,100958.72
2023-03-27T02:30:27.057Z,100977.94
2023-03-27T02:32:58.259Z,100981.50
2023-03-27T02:35:31.506Z,100979.63
2023-03-27T02:38:05.076Z,100981.50
2023-03-27T02:40:41.625Z,100987.97
2023-03-27T02:43:10.604Z,100989.63
2023-03-27T02:45:44.404Z,101010.50
2023-03-27T02:48:14.842Z,101009.47
2023-03-27T02:50:45.134Z,100997.78
2023-03-27T02:53:13.172Z,100970.44
2023-03-27T02:55:44.661Z,101010.50
2023-03-27T02:58:16.381Z,101018.66
2023-03-27T03:00:48.873Z,101020.53
2023-03-27T03:03:18.780Z,101031.41
2023-03-27T03:05:47.050Z,101024.28
2023-03-27T03:08:14.969Z,101030.78
2023-03-27T03:10:46.088Z,101027.00
2023-03-27T03:13:14.031Z,101032.66
2023-03-27T03:15:42.334Z,101039.78
2023-03-27T03:18:10.227Z,101038.69
2023-03-27T03:20:38.204Z,101054.78
2023-03-27T03:23:06.699Z,101059.38
2023-03-27T03:25:35.410Z,101059.81
2023-03-27T03:28:08.157Z,101063.78
2023-03-27T03:30:38.962Z,101063.97
2023-03-27T03:33:07.032Z,101068.16
2023-03-27T03:35:35.905Z,101067.13
2023-03-27T03:38:03.873Z,101070.69
2023-03-27T03:40:32.027Z,101078.00
2023-03-27T03:42:59.945Z,101089.69
2023-03-27T03:45:29.535Z,101082.34
2023-03-27T03:47:57.519Z,101076.91
2023-03-27T03:50:25.470Z,101079.63
2023-03-27T03:52:53.386Z,101086.75
2023-03-27T03:55:21.583Z,101086.75
2023-03-27T03:57:50.193Z,101092.16
2023-03-27T04:00:18.722Z,101086.75
2023-03-27T04:02:50.334Z,101098.44
2023-03-27T04:05:18.455Z,101100.31
2023-03-27T04:07:46.696Z,101101.16
2023-03-27T04:10:14.729Z,101110.13
2023-03-27T04:12:42.723Z,101111.81
2023-03-27T04:15:11.406Z,101113.69
2023-03-27T04:17:40.174Z,101121.66
2023-03-27T04:20:10.662Z,101135.22
2023-03-27T04:22:38.886Z,101133.53
2023-03-27T04:25:08.270Z,101140.00
2023-03-27T04:27:36.776Z,101148.16
2023-03-27T04:30:08.619Z,101149.00
2023-03-27T04:32:36.757Z,101149.84
2023-03-27T04:35:04.866Z,101155.44
2023-03-27T04:37:34.558Z,101157.31
2023-03-27T04:40:05.022Z,101158.16
2023-03-27T04:42:33.195Z,101164.44
2023-03-27T04:45:01.614Z,101163.00
2023-03-27T04:47:29.809Z,101176.13
2023-03-27T04:49:59.280Z,101177.19
2023-03-27T04:52:29.757Z,101173.44
2023-03-27T04:55:00.329Z,101179.69
2023-03-27T04:57:30.852Z,101180.72
2023-03-27T04:59:59.197Z,101179.06
2023-03-27T05:02:27.547Z,101189.91
2023-03-27T05:04:58.702Z,101189.72
2023-03-27T05:07:28.402Z,101195.16
2023-03-27T05:09:57.697Z,101195.97
2023-03-27T05:12:28.014Z,101201.41
2023-03-27T05:14:55.882Z,101193.28
2023-03-27T05:17:25.788Z,101204.13
2023-03-27T05:19:53.740Z,101207.69
2023-03-27T05:22:21.773Z,101211.44
2023-03-27T05:24:49.695Z,101221.25
2023-03-27T05:27:18.274Z,101225.66
2023-03-27T05:29:47.917Z,101229.41
2023-03-27T05:32:15.932Z,101226.69
2023-03-27T05:34:43.812Z,101241.09
2023-03-27T05:37:12.123Z,101234.59
2023-03-27T05:39:41.220Z,101239.44
2023-03-27T05:42:09.152Z,101251.13
2023-03-27T05:44:37.371Z,101247.38
2023-03-27T05:47:06.847Z,101253.63
2023-03-27T05:49:34.864Z,101253.63
2023-03-27T05:52:03.164Z,101262.59
2023-03-27T05:54:31.054Z,101267.19
2023-03-27T05:56:59.340Z,101273.47
2023-03-27T05:59:27.342Z,101266.16
2023-03-27T06:01:55.582Z,101255.53
2023-03-27T06:04:24.915Z,101272.63
2023-03-27T06:06:53.132Z,101276.19
2023-03-27T06:09:21.112Z,101277.03
2023-03-27T06:11:49.005Z,101283.47
2023-03-27T06:14:17.023Z,101282.44
2023-03-27T06:16:46.349Z,101288.72
2023-03-27T06:19:14.247Z,101290.59
2023-03-27T06:21:43.567Z,101303.13
2023-03-27T06:24:11.570Z,101304.16
2023-03-27T06:26:41.006Z,101310.44
2023-03-27T06:29:09.534Z,101316.72
2023-03-27T06:31:38.934Z,101320.28
2023-03-27T06:34:06.990Z,101315.44
2023-03-27T06:36:35.217Z,101328.41
2023-03-27T06:39:05.177Z,101329.44
2023-03-27T06:41:33.239Z,101331.97
2023-03-27T06:44:01.639Z,101327.78
2023-03-27T06:46:42.743Z,101326.13
2023-03-27T06:49:13.362Z,101335.53
2023-03-27T06:51:41.876Z,101321.50
2023-03-27T06:54:12.349Z,101327.78
2023-03-27T06:56:40.641Z,101331.31
2023-03-27T06:59:09.027Z,101329.66
2023-03-27T07:01:37.262Z,101339.94
2023-03-27T07:04:06.720Z,101334.03
2023-03-27T07:06:34.964Z,101346.41
2023-03-27T07:09:02.985Z,101331.75
2023-03-27T07:11:32.400Z,101342.84
2023-03-27T07:14:00.535Z,101353.31
2023-03-27T07:16:28.886Z,101360.63
2023-03-27T07:18:59.408Z,101371.28
2023-03-27T07:21:29.187Z,101374.00
2023-03-27T07:23:57.178Z,101369.34
2023-03-27T07:26:25.543Z,101384.03
2023-03-27T07:28:55.286Z,101383.19
2023-03-27T07:31:36.447Z,101379.44
2023-03-27T07:34:10.534Z,101386.09
2023-03-27T07:36:38.874Z,101379.63
2023-03-27T07:39:09.079Z,101387.59
2023-03-27T07:41:37.046Z,101386.75
2023-03-27T07:44:06.781Z,101385.91
2023-03-27T07:46:35.041Z,101375.81
2023-03-27T07:49:03.019Z,101389.84
2023-03-27T07:51:30.995Z,101388.16
2023-03-27T07:54:04.122Z,101405.75
2023-03-27T07:56:33.407Z,101262.53
2023-03-27T07:59:01.686Z,101413.72
2023-03-27T08:01:31.012Z,101412.88
2023-03-27T08:03:59.543Z,101412.88
2023-03-27T08:06:28.124Z,101409.69
2023-03-27T08:08:57.089Z,101417.84
2023-03-27T08:11:30.670Z,101424.56
2023-03-27T08:13:59.695Z,101423.72
2023-03-27T08:16:29.822Z,101435.44
2023-03-27T08:19:01.340Z,101434.41
2023-03-27T08:21:31.804Z,101417.84
2023-03-27T08:24:00.608Z,101419.72
2023-03-27T08:26:28.862Z,101423.28
2023-03-27T08:28:56.991Z,101431.22
2023-03-27T08:31:25.699Z,101423.06
2023-03-27T08:33:53.847Z,101432.72
2023-03-27T08:36:23.449Z,101426.81
2023-03-27T08:38:51.555Z,101433.06
2023-03-27T08:41:30.766Z,101432.06
2023-03-27T08:44:00.837Z,101456.97
2023-03-27T08:46:29.873Z,101440.22
2023-03-27T08:48:59.331Z,101451.53
2023-03-27T08:51:29.866Z,101456.13
2023-03-27T08:53:58.734Z,101460.72
2023-03-27T08:56:28.412Z,101463.44
2023-03-27T08:58:56.311Z,101466.16
2023-03-27T09:01:29.460Z,101471.59
2023-03-27T09:04:00.905Z,101478.88
2023-03-27T09:06:34.179Z,101480.56
2023-03-27T09:09:05.039Z,101486.19
2023-03-27T09:11:42.077Z,101495.19
2023-03-27T09:14:16.267Z,101495.19
2023-03-27T09:16:49.316Z,101500.63
2023-03-27T09:19:21.970Z,101500.63
2023-03-27T09:21:52.648Z,101496.88
2023-03-27T09:24:24.766Z,101493.69
2023-03-27T09:27:04.503Z,101501.47
2023-03-27T09:29:35.426Z,101497.06
2023-03-27T09:32:04.060Z,101489.75
2023-03-27T09:34:33.383Z,101500.63
2023-03-27T09:37:03.053Z,101502.31
2023-03-27T09:39:32.621Z,101490.59
2023-03-27T09:42:07.157Z,101423.19
2023-03-27T09:44:36.990Z,101499.59
2023-03-27T09:47:07.817Z,101501.47
2023-03-27T09:49:35.822Z,101496.88
2023-03-27T09:52:07.849Z,101503.13
2023-03-27T09:54:51.896Z,101495.19
2023-03-27T09:57:20.389Z,101506.69
2023-03-27T09:59:56.874Z,101503.97
2023-03-27T10:02:26.120Z,101506.03
2023-03-27T10:05:00.979Z,101515.66
2023-03-27T10:07:30.608Z,101518.59
2023-03-27T10:10:08.421Z,101513.16
2023-03-27T10:12:36.870Z,101515.03
2023-03-27T10:15:05.482Z,101521.31
2023-03-27T10:17:36.808Z,101523.19
2023-03-27T10:20:09.076Z,101522.16
2023-03-27T10:22:39.355Z,101523.19
2023-03-27T10:25:11.600Z,101525.91
2023-03-27T10:27:43.345Z,101519.63
2023-03-27T10:30:29.929Z,101524.03
2023-03-27T10:32:57.987Z,101524.88
2023-03-27T10:35:28.160Z,101518.59
2023-03-27T10:37:57.505Z,101519.44
2023-03-27T10:40:26.494Z,101518.31
2023-03-27T10:42:56.837Z,101522.16
2023-03-27T10:45:25.016Z,101530.28
2023-03-27T10:47:54.029Z,101527.59
2023-03-27T10:50:23.086Z,101528.44
2023-03-27T10:52:59.366Z,101539.28
2023-03-27T10:55:36.043Z,101520.19
2023-03-27T10:58:06.773Z,101525.41
2023-03-27T11:00:36.958Z,101487.19
2023-03-27T11:03:10.068Z,101557.84
2023-03-27T11:05:39.753Z,101542.00
2023-03-27T11:08:12.315Z,101543.88
2023-03-27T11:10:41.576Z,101545.75
2023-03-27T11:13:11.619Z,101548.25
2023-03-27T11:15:42.218Z,101552.88
2023-03-27T11:18:14.302Z,101551.19
2023-03-27T11:20:44.380Z,101568.94
2023-03-27T11:23:16.418Z,101569.97
2023-03-27T11:25:46.926Z,101568.09
2023-03-27T11:28:21.104Z,101581.06
2023-03-27T11:30:50.927Z,101599.41
2023-03-27T11:33:35.538Z,101630.38
2023-03-27T11:36:10.137Z,101603.91
2023-03-27T11:38:41.383Z,101631.41
2023-03-27T11:41:14.641Z,101612.81
2023-03-27T11:43:43.673Z,101617.38
2023-03-27T11:46:20.974Z,101596.66
2023-03-27T11:48:56.579Z,101645.84
2023-03-27T11:51:29.991Z,101597.50
2023-03-27T11:54:22.025Z,101641.25
2023-03-27T11:56:54.509Z,101630.56
2023-03-27T11:59:41.691Z,101617.84
2023-03-27T12:02:20.313Z,101619.72
2023-03-27T12:04:51.587Z,101616.38
2023-03-27T12:07:35.462Z,101623.66
2023-03-27T12:10:16.179Z,101617.38
2023-03-27T12:13:02.366Z,101616.81
2023-03-27T12:15:38.090Z,101621.78
2023-03-27T12:18:09.680Z,101613.84
2023-03-27T12:20:53.321Z,101613.44
2023-03-27T12:23:43.390Z,101609.50
2023-03-27T12:26:31.708Z,101613.91
2023-03-27T12:29:22.640Z,101617.47
2023-03-27T12:32:00.659Z,101621.22
2023-03-27T12:34:36.224Z,101616.63
2023-03-27T12:37:04.577Z,101612.22
2023-03-27T12:39:33.094Z,101613.91
2023-03-27T12:42:02.423Z,101615.34
2023-03-27T12:44:31.385Z,101570.63
2023-03-27T12:47:09.611Z,101621.03
2023-03-27T12:49:47.575Z,101617.47
2023-03-27T12:52:18.726Z,101640.22
2023-03-27T12:55:06.972Z,101647.34
2023-03-27T12:57:44.964Z,101657.13
2023-03-27T13:00:21.480Z,101669.91
2023-03-27T13:03:06.110Z,101664.25
2023-03-27T13:05:44.205Z,101664.25
2023-03-27T13:08:38.161Z,101670.53
2023-03-27T13:11:14.294Z,101671.38
2023-03-27T13:14:03.855Z,101604.09
2023-03-27T13:16:38.806Z,101665.94
2023-03-27T13:19:22.975Z,101655.28
2023-03-27T13:21:56.135Z,101662.38
2023-03-27T13:24:34.112Z,101666.13
2023-03-27T13:27:09.661Z,101649.78
2023-03-27T13:29:39.284Z,101661.75
2023-03-27T13:32:19.202Z,101668.84
2023-03-27T13:35:01.925Z,101655.28
2023-03-27T13:37:53.670Z,101661.53
2023-03-27T13:40:26.624Z,101650.69
2023-03-27T13:42:57.940Z,101597.50
2023-03-27T13:45:30.229Z,101638.13
2023-03-27T13:48:25.041Z,101646.09
2023-03-27T13:51:26.574Z,101643.38
2023-03-27T13:54:09.988Z,101632.50
2023-03-27T13:56:52.924Z,101639.81
2023-03-27T13:59:54.606Z,101636.47
2023-03-27T14:02:40.638Z,101640.66
2023-03-27T14:05:16.447Z,101636.25
2023-03-27T14:08:01.975Z,101658.66
2023-03-27T14:10:40.046Z,101670.34
2023-03-27T14:13:24.199Z,101669.50
2023-03-27T14:16:34.933Z,101683.09
2023-03-27T14:19:26.577Z,101690.41
2023-03-27T14:21:56.442Z,101684.13
2023-03-27T14:24:29.032Z,101686.66
2023-03-27T14:26:57.682Z,101702.94
2023-03-27T14:29:26.718Z,101686.66
2023-03-27T14:31:54.728Z,101698.38
2023-03-27T14:34:24.840Z,101697.50
2023-03-27T14:36:53.142Z,101696.50
2023-03-27T14:39:22.184Z,101690.84
2023-03-27T14:41:54.179Z,101695.44
2023-03-27T14:44:22.433Z,101701.91
2023-03-27T14:46:50.916Z,101703.56
2023-03-27T14:49:20.776Z,101700.06
2023-03-27T14:51:53.528Z,101706.28
2023-03-27T14:54:27.280Z,101698.16
2023-03-27T14:56:56.123Z,101699.00
2023-03-27T14:59:25.678Z,101696.28
2023-03-27T15:01:55.751Z,101697.13
2023-03-27T15:04:24.670Z,101690.00
2023-03-27T15:06:56.929Z,101692.53
2023-03-27T15:09:24.851Z,101704.41
2023-03-27T15:11:55.672Z,101703.78
2023-03-27T15:14:31.342Z,101696.28
2023-03-27T15:17:01.374Z,101707.97
2023-03-27T15:19:30.176Z,101697.50
2023-03-27T15:22:01.512Z,101699.00
2023-03-27T15:24:33.211Z,101704.63
2023-03-27T15:27:01.620Z,101709.22
2023-03-27T15:29:32.969Z,101702.75
2023-03-27T15:32:01.372Z,101703.56
2023-03-27T15:34:34.196Z,101701.91
2023-03-27T15:37:05.768Z,101704.81
2023-03-27T15:39:34.361Z,101712.78
2023-03-27T15:42:05.156Z,101702.75
2023-03-27T15:44:34.407Z,101699.97
2023-03-27T15:47:02.866Z,101712.78
2023-03-27T15:49:32.712Z,101719.06
2023-03-27T15:52:01.479Z,101727.22
2023-03-27T15:54:35.165Z,101737.25
2023-03-27T15:57:09.685Z,101738.06
2023-03-27T15:59:51.258Z,101740.78
2023-03-27T16:02:21.223Z,101736.38
2023-03-27T16:04:53.082Z,101732.16
2023-03-27T16:07:22.720Z,101738.44
2023-03-27T16:09:53.863Z,101742.00
2023-03-27T16:12:25.731Z,101748.28
2023-03-27T16:14:57.111Z,101747.25
2023-03-27T16:17:35.772Z,101742.00
2023-03-27T16:20:24.174Z,101755.59
2023-03-27T16:22:52.772Z,101757.28
2023-03-27T16:25:22.339Z,101750.16
2023-03-27T16:27:51.206Z,101758.31
2023-03-27T16:30:22.381Z,101754.75
2023-03-27T16:32:51.110Z,101752.22
2023-03-27T16:35:19.130Z,101762.06
2023-03-27T16:37:47.800Z,101761.19
2023-03-27T16:40:15.884Z,101763.06
2023-03-27T16:42:45.379Z,101760.38
2023-03-27T16:45:13.318Z,101768.50
2023-03-27T16:47:41.878Z,101766.84
2023-03-27T16:50:13.076Z,101770.41
2023-03-27T16:52:40.949Z,101763.06
2023-03-27T16:55:09.678Z,101765.78
2023-03-27T16:57:37.916Z,101764.97
2023-03-27T17:00:11.722Z,101763.28
2023-03-27T17:02:39.701Z,101771.44
2023-03-27T17:05:08.885Z,101773.94
2023-03-27T17:07:37.112Z,101778.16
2023-03-27T17:10:05.335Z,101784.63
2023-03-27T17:12:33.281Z,101764.91
2023-03-27T17:15:01.231Z,101788.84
2023-03-27T17:17:31.863Z,101794.28
2023-03-27T17:20:00.800Z,101798.22
2023-03-27T17:22:29.897Z,101798.47
2023-03-27T17:25:01.213Z,101803.91
2023-03-27T17:27:29.457Z,101808.31
2023-03-27T17:29:57.542Z,101814.94
2023-03-27T17:32:25.699Z,101812.91
2023-03-27T17:34:55.390Z,101817.31
2023-03-27T17:37:23.427Z,101824.44
2023-03-27T17:39:51.531Z,101831.56
2023-03-27T17:42:19.421Z,101827.34
2023-03-27T17:44:47.402Z,101834.91
2023-03-27T17:47:15.605Z,101833.88
2023-03-27T17:49:45.243Z,101839.31
2023-03-27T17:52:14.595Z,101850.00
2023-03-27T17:54:42.636Z,101843.72
2023-03-27T17:57:10.806Z,101854.59
2023-03-27T17:59:38.858Z,101854.78
2023-03-27T18:02:07.192Z,101867.31
2023-03-27T18:04:36.436Z,101866.47
2023-03-27T18:07:04.642Z,101872.75
2023-03-27T18:09:34.138Z,101872.75
2023-03-27T18:12:02.101Z,101876.31
2023-03-27T18:14:30.057Z,101878.19
2023-03-27T18:16:58.272Z,101888.22
2023-03-27T18:19:26.121Z,101880.91
2023-03-27T18:21:54.124Z,101888.03
2023-03-27T18:24:22.141Z,101884.47
2023-03-27T18:26:51.850Z,101887.19
2023-03-27T18:29:21.154Z,101888.22
2023-03-27T18:31:49.223Z,101897.38
2023-03-27T18:34:19.149Z,101896.38
2023-03-27T18:36:50.840Z,101898.91
2023-03-27T18:39:18.859Z,101896.38
2023-03-27T18:41:46.785Z,101900.09
2023-03-27T18:44:16.936Z,101901.81
2023-03-27T18:46:44.946Z,101896.38
2023-03-27T18:49:23.803Z,101906.38
2023-03-27T18:51:53.025Z,101913.69
2023-03-27T18:54:21.207Z,101907.41
2023-03-27T18:56:49.712Z,101912.84
2023-03-27T18:59:19.403Z,101918.09
2023-03-27T19:01:47.349Z,101919.13
2023-03-27T19:04:17.096Z,101918.28
2023-03-27T19:06:46.352Z,101924.56
2023-03-27T19:09:14.438Z,101929.16
2023-03-27T19:11:43.924Z,101924.75
2023-03-27T19:14:12.212Z,101930.19
2023-03-27T19:16:42.226Z,101933.09
2023-03-27T19:19:10.990Z,101933.09
2023-03-27T19:21:39.287Z,101927.66
2023-03-27T19:24:07.718Z,101928.69
2023-03-27T19:26:37.322Z,101939.38
2023-03-27T19:29:05.610Z,101914.56
2023-03-27T19:31:33.696Z,101936.66
2023-03-27T19:34:03.289Z,101938.53
2023-03-27T19:36:31.761Z,101943.97
2023-03-27T19:38:59.751Z,101946.69
2023-03-27T19:41:27.992Z,101939.75
2023-03-27T19:43:57.247Z,101939.56
2023-03-27T19:46:28.427Z,101945.16
2023-03-27T19:48:56.572Z,101947.72
2023-03-27T19:51:25.878Z,101945.84
2023-03-27T19:53:55.514Z,101947.72
2023-03-27T19:56:23.842Z,101950.44
2023-03-27T19:58:52.248Z,101955.00
2023-03-27T20:01:21.467Z,101946.88
2023-03-27T20:03:49.595Z,101952.31
2023-03-27T20:06:19.492Z,101962.31
2023-03-27T20:08:48.854Z,101965.88
2023-03-27T20:11:16.733Z,101965.03
2023-03-27T20:13:55.352Z,101965.88
2023-03-27T20:16:26.150Z,101957.28
2023-03-27T20:19:03.468Z,101966.06
2023-03-27T20:21:32.518Z,101968.78
2023-03-27T20:24:01.836Z,101968.78
2023-03-27T20:26:32.485Z,101968.78
2023-03-27T20:29:00.538Z,101976.94
2023-03-27T20:31:28.452Z,101972.50
2023-03-27T20:33:56.408Z,101967.09
2023-03-27T20:36:24.736Z,101971.50
2023-03-27T20:38:53.310Z,101982.38
2023-03-27T20:41:22.946Z,101981.50
2023-03-27T20:43:50.941Z,101978.78
2023-03-27T20:46:19.185Z,101976.94
2023-03-27T20:48:53.889Z,101972.50
2023-03-27T20:51:24.238Z,101976.28
2023-03-27T20:53:55.857Z,101979.84
2023-03-27T20:56:25.758Z,101988.00
2023-03-27T20:58:53.630Z,101990.72
2023-03-27T21:01:27.867Z,101985.28
2023-03-27T21:03:58.148Z,101983.38
2023-03-27T21:06:26.728Z,101980.88
2023-03-27T21:08:54.770Z,101989.03
2023-03-27T21:11:22.706Z,101987.16
2023-03-27T21:13:52.043Z,101983.59
2023-03-27T21:16:20.282Z,101993.63
2023-03-27T21:18:48.262Z,101990.91
2023-03-27T21:21:16.196Z,101982.75
2023-03-27T21:23:44.079Z,101996.16
2023-03-27T21:26:12.280Z,101995.47
2023-03-27T21:28:40.212Z,101998.19
2023-03-27T21:31:10.188Z,102004.47
2023-03-27T21:33:38.428Z,102004.47
2023-03-27T21:36:07.375Z,102001.94
2023-03-27T21:38:35.368Z,101999.91
2023-03-27T21:41:03.252Z,102007.19
2023-03-27T21:43:31.464Z,102006.34
2023-03-27T21:46:01.711Z,102007.19
2023-03-27T21:48:31.339Z,102004.47
2023-03-27T21:51:00.914Z,102008.22
2023-03-27T21:53:28.835Z,102017.22
2023-03-27T21:55:57.699Z,102009.06
2023-03-27T21:58:25.998Z,102012.63
2023-03-27T22:00:53.974Z,102014.50
2023-03-27T22:03:21.894Z,102010.09
2023-03-27T22:06:01.530Z,102020.09
2023-03-27T22:08:38.815Z,102023.03
2023-03-27T22:11:07.051Z,102019.47
2023-03-27T22:13:35.883Z,102020.50
2023-03-27T22:16:09.403Z,102019.66
2023-03-27T22:18:37.363Z,102029.50
2023-03-27T22:21:17.427Z,102025.25
2023-03-27T22:23:45.642Z,102029.66
2023-03-27T22:26:13.906Z,102024.63
2023-03-27T22:28:41.840Z,102034.25
2023-03-27T22:31:10.018Z,102033.41
2023-03-27T22:33:38.022Z,102041.75
2023-03-27T22:36:07.289Z,102046.13
2023-03-27T22:38:36.853Z,102054.28
2023-03-27T22:41:05.443Z,102050.94
2023-03-27T22:43:33.417Z,102053.66
2023-03-27T22:46:05.790Z,102054.66
2023-03-27T22:48:33.771Z,102060.94
2023-03-27T22:51:01.667Z,102064.50
2023-03-27T22:53:31.696Z,102070.13
2023-03-27T22:56:01.996Z,102065.53
2023-03-27T22:58:30.489Z,102069.28
2023-03-27T23:00:58.455Z,102075.56
2023-03-27T23:03:26.859Z,102077.25
2023-03-27T23:05:55.522Z,102079.13
2023-03-27T23:08:27.076Z,102078.44
2023-03-27T23:10:56.233Z,102080.31
2023-03-27T23:13:25.740Z,102074.69
2023-03-27T23:15:53.726Z,102079.28
2023-03-27T23:18:24.427Z,102077.59
2023-03-27T23:20:55.180Z,102087.59
2023-03-27T23:23:23.164Z,102084.88
2023-03-27T23:25:51.393Z,102085.91
2023-03-27T23:28:19.322Z,102083.03
2023-03-27T23:30:54.758Z,102085.75
2023-03-27T23:33:24.961Z,102092.19
2023-03-27T23:35:53.898Z,102095.09
2023-03-27T23:38:21.882Z,102095.94
2023-03-27T23:40:55.760Z,102070.41
2023-03-27T23:43:23.680Z,102092.72
2023-03-27T23:45:52.044Z,102103.22
2023-03-27T23:48:21.397Z,102099.66
2023-03-27T23:50:49.300Z,102102.38
2023-03-27T23:53:17.264Z,102109.69
2023-03-27T23:55:45.696Z,102107.81
2023-03-27T23:58:13.619Z,102112.41
